sensor_id;sensor_type;location;lat;lon;timestamp;pressure;altitude;pressure_sealevel;temperature;humidity
55271;BME280;41132;47.162;9.470;2023-03-25T00:00:15;96164.47;;;7.82;100.00
55271;BME280;41132;47.162;9.470;2023-03-25T00:02:47;96158.50;;;7.90;100.00
55271;BME280;41132;47.162;9.470;2023-03-25T00:05:14;96163.03;;;7.88;100.00
55271;BME280;41132;47.162;9.470;2023-03-25T00:07:41;96173.69;;;8.04;100.00
55271;BME280;41132;47.162;9.470;2023-03-25T00:10:07;96167.13;;;8.00;100.00
55271;BME280;41132;47.162;9.470;2023-03-25T00:12:33;96162.56;;;8.02;100.00
55271;BME280;41132;47.162;9.470;2023-03-25T00:14:59;96164.66;;;7.71;100.00
55271;BME280;41132;47.162;9.470;2023-03-25T00:17:25;96168.59;;;7.57;100.00
55271;BME280;41132;47.162;9.470;2023-03-25T00:20:02;96162.44;;;7.48;100.00
55271;BME280;41132;47.162;9.470;2023-03-25T00:22:35;96171.38;;;7.46;100.00
55271;BME280;41132;47.162;9.470;2023-03-25T00:25:06;96172.31;;;7.82;100.00
55271;BME280;41132;47.162;9.470;2023-03-25T00:27:32;96150.63;;;7.72;100.00
55271;BME280;41132;47.162;9.470;2023-03-25T00:29:57;96158.44;;;7.54;100.00
55271;BME280;41132;47.162;9.470;2023-03-25T00:32:23;96152.72;;;7.41;100.00
55271;BME280;41132;47.162;9.470;2023-03-25T00:34:48;96145.72;;;7.41;100.00
55271;BME280;41132;47.162;9.470;2023-03-25T00:37:15;96135.00;;;7.62;100.00
55271;BME280;41132;47.162;9.470;2023-03-25T00:39:43;96143.28;;;7.58;100.00
55271;BME280;41132;47.162;9.470;2023-03-25T00:42:09;96136.75;;;7.71;100.00
55271;BME280;41132;47.162;9.470;2023-03-25T00:44:35;96140.78;;;7.66;100.00
55271;BME280;41132;47.162;9.470;2023-03-25T00:47:01;96133.66;;;7.58;100.00
55271;BME280;41132;47.162;9.470;2023-03-25T00:49:26;96125.25;;;7.64;100.00
55271;BME280;41132;47.162;9.470;2023-03-25T00:51:53;96135.34;;;7.77;100.00
55271;BME280;41132;47.162;9.470;2023-03-25T00:54:18;96127.78;;;7.74;100.00
55271;BME280;41132;47.162;9.470;2023-03-25T00:56:46;96131.72;;;7.60;100.00
55271;BME280;41132;47.162;9.470;2023-03-25T00:59:12;96139.97;;;7.65;100.00
55271;BME280;41132;47.162;9.470;2023-03-25T01:01:37;96126.59;;;7.68;100.00
55271;BME280;41132;47.162;9.470;2023-03-25T01:04:04;96126.81;;;7.57;100.00
55271;BME280;41132;47.162;9.470;2023-03-25T01:06:37;96122.00;;;7.80;100.00
55271;BME280;41132;47.162;9.470;2023-03-25T01:09:06;96131.84;;;7.41;100.00
55271;BME280;41132;47.162;9.470;2023-03-25T01:11:33;96125.31;;;7.27;100.00
55271;BME280;41132;47.162;9.470;2023-03-25T01:13:59;96116.56;;;7.46;100.00
55271;BME280;41132;47.162;9.470;2023-03-25T01:16:25;96105.19;;;7.37;100.00
55271;BME280;41132;47.162;9.470;2023-03-25T01:18:51;96118.88;;;7.21;100.00
55271;BME280;41132;47.162;9.470;2023-03-25T01:21:17;96113.34;;;7.24;100.00
55271;BME280;41132;47.162;9.470;2023-03-25T01:23:42;96125.94;;;7.01;100.00
55271;BME280;41132;47.162;9.470;2023-03-25T01:26:07;96120.25;;;6.78;100.00
55271;BME280;41132;47.162;9.470;2023-03-25T01:28:33;96137.06;;;7.03;100.00
55271;BME280;41132;47.162;9.470;2023-03-25T01:31:04;96145.81;;;7.12;100.00
55271;BME280;41132;47.162;9.470;2023-03-25T01:33:30;96143.16;;;6.84;100.00
55271;BME280;41132;47.162;9.470;2023-03-25T01:35:57;96152.19;;;6.90;100.00
55271;BME280;41132;47.162;9.470;2023-03-25T01:38:23;96156.19;;;6.94;100.00
55271;BME280;41132;47.162;9.470;2023-03-25T01:40:49;96145.31;;;6.99;100.00
55271;BME280;41132;47.162;9.470;2023-03-25T01:43:15;96133.81;;;6.92;100.00
55271;BME280;41132;47.162;9.470;2023-03-25T01:45:42;96125.00;;;6.93;100.00
55271;BME280;41132;47.162;9.470;2023-03-25T01:48:16;96127.38;;;7.23;100.00
55271;BME280;41132;47.162;9.470;2023-03-25T01:50:53;96125.00;;;6.93;100.00
55271;BME280;41132;47.162;9.470;2023-03-25T01:53:20;96135.84;;;6.98;100.00
55271;BME280;41132;47.162;9.470;2023-03-25T01:55:45;96132.00;;;6.92;100.00
55271;BME280;41132;47.162;9.470;2023-03-25T01:58:14;96145.19;;;7.00;100.00
55271;BME280;41132;47.162;9.470;2023-03-25T02:00:43;96141.16;;;7.16;100.00
55271;BME280;41132;47.162;9.470;2023-03-25T02:03:10;96135.81;;;7.07;100.00
55271;BME280;41132;47.162;9.470;2023-03-25T02:05:58;96151.22;;;7.01;100.00
55271;BME280;41132;47.162;9.470;2023-03-25T02:08:27;96167.31;;;6.86;100.00
55271;BME280;41132;47.162;9.470;2023-03-25T02:10:56;96158.59;;;6.68;100.00
55271;BME280;41132;47.162;9.470;2023-03-25T02:13:22;96174.00;;;6.99;100.00
55271;BME280;41132;47.162;9.470;2023-03-25T02:21:59;96212.88;;;6.92;100.00
55271;BME280;41132;47.162;9.470;2023-03-25T02:35:41;96184.19;;;7.02;100.00
55271;BME280;41132;47.162;9.470;2023-03-25T02:41:24;96164.31;;;7.28;100.00
55271;BME280;41132;47.162;9.470;2023-03-25T02:44:09;96168.97;;;7.35;100.00
55271;BME280;41132;47.162;9.470;2023-03-25T02:46:42;96174.34;;;7.23;100.00
55271;BME280;41132;47.162;9.470;2023-03-25T02:49:24;96189.41;;;7.39;100.00
55271;BME280;41132;47.162;9.470;2023-03-25T02:51:56;96197.69;;;7.62;100.00
55271;BME280;41132;47.162;9.470;2023-03-25T02:54:25;96199.03;;;7.39;100.00
55271;BME280;41132;47.162;9.470;2023-03-25T02:56:52;96213.78;;;7.30;100.00
55271;BME280;41132;47.162;9.470;2023-03-25T02:59:25;96227.34;;;7.43;100.00
55271;BME280;41132;47.162;9.470;2023-03-25T03:01:56;96256.88;;;7.44;100.00
55271;BME280;41132;47.162;9.470;2023-03-25T03:04:25;96237.34;;;7.48;100.00
55271;BME280;41132;47.162;9.470;2023-03-25T03:06:52;96184.75;;;7.33;100.00
55271;BME280;41132;47.162;9.470;2023-03-25T03:12:25;96200.00;;;7.38;100.00
55271;BME280;41132;47.162;9.470;2023-03-25T03:15:16;96210.50;;;7.56;100.00
55271;BME280;41132;47.162;9.470;2023-03-25T03:20:52;96204.38;;;7.00;100.00
55271;BME280;41132;47.162;9.470;2023-03-25T03:23:33;96199.38;;;7.16;100.00
55271;BME280;41132;47.162;9.470;2023-03-25T03:26:25;96186.81;;;7.02;100.00
55271;BME280;41132;47.162;9.470;2023-03-25T03:29:06;96191.44;;;7.08;100.00
55271;BME280;41132;47.162;9.470;2023-03-25T03:31:39;96174.31;;;6.96;100.00
55271;BME280;41132;47.162;9.470;2023-03-25T03:34:13;96168.63;;;7.10;100.00
55271;BME280;41132;47.162;9.470;2023-03-25T03:36:46;96172.13;;;7.28;100.00
55271;BME280;41132;47.162;9.470;2023-03-25T03:39:20;96183.44;;;7.29;100.00
55271;BME280;41132;47.162;9.470;2023-03-25T03:41:51;96162.47;;;7.11;100.00
55271;BME280;41132;47.162;9.470;2023-03-25T03:44:21;96186.97;;;7.28;100.00
55271;BME280;41132;47.162;9.470;2023-03-25T03:46:50;96187.47;;;7.04;100.00
55271;BME280;41132;47.162;9.470;2023-03-25T03:49:22;96192.50;;;7.25;100.00
55271;BME280;41132;47.162;9.470;2023-03-25T03:52:16;96178.22;;;7.29;100.00
55271;BME280;41132;47.162;9.470;2023-03-25T03:54:50;96162.75;;;7.36;100.00
55271;BME280;41132;47.162;9.470;2023-03-25T03:57:26;96159.72;;;7.40;100.00
55271;BME280;41132;47.162;9.470;2023-03-25T04:00:08;96159.97;;;7.47;100.00
55271;BME280;41132;47.162;9.470;2023-03-25T04:02:47;96165.16;;;7.19;100.00
55271;BME280;41132;47.162;9.470;2023-03-25T04:05:16;96148.22;;;6.96;100.00
55271;BME280;41132;47.162;9.470;2023-03-25T04:07:56;96174.09;;;7.17;100.00
55271;BME280;41132;47.162;9.470;2023-03-25T04:10:32;96189.75;;;7.17;100.00
55271;BME280;41132;47.162;9.470;2023-03-25T04:13:06;96191.72;;;7.05;100.00
55271;BME280;41132;47.162;9.470;2023-03-25T04:15:33;96224.50;;;7.27;100.00
55271;BME280;41132;47.162;9.470;2023-03-25T04:17:59;96217.09;;;7.22;100.00
55271;BME280;41132;47.162;9.470;2023-03-25T04:20:26;96211.59;;;7.25;100.00
55271;BME280;41132;47.162;9.470;2023-03-25T04:22:54;96206.66;;;7.22;100.00
55271;BME280;41132;47.162;9.470;2023-03-25T04:25:19;96205.38;;;7.26;100.00
55271;BME280;41132;47.162;9.470;2023-03-25T04:27:49;96200.59;;;7.22;100.00
55271;BME280;41132;47.162;9.470;2023-03-25T04:30:18;96208.97;;;7.25;100.00
55271;BME280;41132;47.162;9.470;2023-03-25T04:32:44;96216.94;;;7.34;100.00
55271;BME280;41132;47.162;9.470;2023-03-25T04:35:12;96231.84;;;7.51;100.00
55271;BME280;41132;47.162;9.470;2023-03-25T04:37:38;96242.41;;;7.59;100.00
55271;BME280;41132;47.162;9.470;2023-03-25T04:40:04;96267.31;;;7.44;100.00
55271;BME280;41132;47.162;9.470;2023-03-25T04:42:31;96290.41;;;7.48;100.00
55271;BME280;41132;47.162;9.470;2023-03-25T04:44:57;96308.16;;;7.25;100.00
55271;BME280;41132;47.162;9.470;2023-03-25T04:47:24;96309.41;;;7.21;100.00
55271;BME280;41132;47.162;9.470;2023-03-25T04:49:50;96317.66;;;6.87;100.00
55271;BME280;41132;47.162;9.470;2023-03-25T04:52:15;96347.88;;;6.80;100.00
55271;BME280;41132;47.162;9.470;2023-03-25T04:54:41;96346.47;;;6.76;100.00
55271;BME280;41132;47.162;9.470;2023-03-25T04:57:09;96330.13;;;6.55;100.00
55271;BME280;41132;47.162;9.470;2023-03-25T04:59:35;96326.25;;;6.49;100.00
55271;BME280;41132;47.162;9.470;2023-03-25T05:02:02;96314.19;;;6.38;100.00
55271;BME280;41132;47.162;9.470;2023-03-25T05:04:30;96310.44;;;6.21;100.00
55271;BME280;41132;47.162;9.470;2023-03-25T05:06:56;96303.75;;;6.38;100.00
55271;BME280;41132;47.162;9.470;2023-03-25T05:09:22;96299.78;;;6.34;100.00
55271;BME280;41132;47.162;9.470;2023-03-25T05:11:49;96293.06;;;6.41;100.00
55271;BME280;41132;47.162;9.470;2023-03-25T05:14:17;96301.22;;;6.17;100.00
55271;BME280;41132;47.162;9.470;2023-03-25T05:16:43;96291.53;;;6.29;100.00
55271;BME280;41132;47.162;9.470;2023-03-25T05:19:09;96294.16;;;6.48;100.00
55271;BME280;41132;47.162;9.470;2023-03-25T05:21:36;96308.06;;;6.59;100.00
55271;BME280;41132;47.162;9.470;2023-03-25T05:24:06;96306.09;;;6.51;100.00
55271;BME280;41132;47.162;9.470;2023-03-25T05:26:36;96325.75;;;6.65;100.00
55271;BME280;41132;47.162;9.470;2023-03-25T05:29:10;96325.22;;;6.81;100.00
55271;BME280;41132;47.162;9.470;2023-03-25T05:31:40;96329.72;;;6.50;100.00
55271;BME280;41132;47.162;9.470;2023-03-25T05:34:06;96342.66;;;6.61;100.00
55271;BME280;41132;47.162;9.470;2023-03-25T05:36:32;96355.38;;;6.54;100.00
55271;BME280;41132;47.162;9.470;2023-03-25T05:38:58;96346.59;;;6.65;100.00
55271;BME280;41132;47.162;9.470;2023-03-25T05:41:26;96361.56;;;6.63;100.00
55271;BME280;41132;47.162;9.470;2023-03-25T05:43:58;96350.88;;;6.76;100.00
55271;BME280;41132;47.162;9.470;2023-03-25T05:46:25;96356.09;;;6.66;100.00
55271;BME280;41132;47.162;9.470;2023-03-25T05:48:52;96355.13;;;6.77;100.00
55271;BME280;41132;47.162;9.470;2023-03-25T05:51:24;96363.09;;;6.65;100.00
55271;BME280;41132;47.162;9.470;2023-03-25T05:53:49;96364.91;;;6.75;100.00
55271;BME280;41132;47.162;9.470;2023-03-25T05:56:20;96365.56;;;6.77;100.00
55271;BME280;41132;47.162;9.470;2023-03-25T05:58:47;96357.03;;;6.65;100.00
55271;BME280;41132;47.162;9.470;2023-03-25T06:01:14;96362.38;;;6.54;100.00
55271;BME280;41132;47.162;9.470;2023-03-25T06:03:41;96355.09;;;6.47;100.00
55271;BME280;41132;47.162;9.470;2023-03-25T06:06:07;96361.44;;;6.55;100.00
55271;BME280;41132;47.162;9.470;2023-03-25T06:08:39;96339.88;;;6.53;100.00
55271;BME280;41132;47.162;9.470;2023-03-25T06:11:06;96326.19;;;6.80;100.00
55271;BME280;41132;47.162;9.470;2023-03-25T06:13:33;96314.22;;;6.58;100.00
55271;BME280;41132;47.162;9.470;2023-03-25T06:16:03;96311.34;;;6.61;100.00
55271;BME280;41132;47.162;9.470;2023-03-25T06:18:30;96315.47;;;6.73;100.00
55271;BME280;41132;47.162;9.470;2023-03-25T06:20:55;96339.06;;;6.72;100.00
55271;BME280;41132;47.162;9.470;2023-03-25T06:23:22;96353.44;;;6.56;100.00
55271;BME280;41132;47.162;9.470;2023-03-25T06:25:49;96359.75;;;6.44;100.00
55271;BME280;41132;47.162;9.470;2023-03-25T06:30:50;96374.88;;;6.60;100.00
55271;BME280;41132;47.162;9.470;2023-03-25T06:33:16;96374.72;;;6.52;100.00
55271;BME280;41132;47.162;9.470;2023-03-25T06:35:46;96361.84;;;6.60;100.00
55271;BME280;41132;47.162;9.470;2023-03-25T06:38:17;96359.75;;;6.54;100.00
55271;BME280;41132;47.162;9.470;2023-03-25T06:40:43;96377.56;;;6.39;100.00
55271;BME280;41132;47.162;9.470;2023-03-25T06:43:08;96391.25;;;6.31;100.00
55271;BME280;41132;47.162;9.470;2023-03-25T06:45:34;96381.75;;;6.20;100.00
55271;BME280;41132;47.162;9.470;2023-03-25T06:50:34;96385.88;;;6.73;100.00
55271;BME280;41132;47.162;9.470;2023-03-25T06:53:00;96390.28;;;6.73;100.00
55271;BME280;41132;47.162;9.470;2023-03-25T06:55:27;96381.91;;;6.79;100.00
55271;BME280;41132;47.162;9.470;2023-03-25T06:57:55;96367.47;;;6.55;100.00
55271;BME280;41132;47.162;9.470;2023-03-25T07:00:21;96362.69;;;6.80;100.00
55271;BME280;41132;47.162;9.470;2023-03-25T07:02:48;96362.81;;;6.59;100.00
55271;BME280;41132;47.162;9.470;2023-03-25T07:05:14;96365.72;;;6.65;100.00
55271;BME280;41132;47.162;9.470;2023-03-25T07:07:40;96359.53;;;6.76;100.00
55271;BME280;41132;47.162;9.470;2023-03-25T07:12:40;96369.06;;;6.46;100.00
55271;BME280;41132;47.162;9.470;2023-03-25T07:15:06;96374.06;;;6.59;100.00
55271;BME280;41132;47.162;9.470;2023-03-25T07:17:32;96370.06;;;6.65;100.00
55271;BME280;41132;47.162;9.470;2023-03-25T07:19:57;96363.56;;;6.40;100.00
55271;BME280;41132;47.162;9.470;2023-03-25T07:22:22;96369.94;;;6.57;100.00
55271;BME280;41132;47.162;9.470;2023-03-25T07:24:48;96367.78;;;6.31;100.00
55271;BME280;41132;47.162;9.470;2023-03-25T07:27:14;96370.44;;;6.41;100.00
55271;BME280;41132;47.162;9.470;2023-03-25T07:29:40;96369.78;;;6.58;100.00
55271;BME280;41132;47.162;9.470;2023-03-25T07:32:06;96389.59;;;6.61;100.00
55271;BME280;41132;47.162;9.470;2023-03-25T07:34:31;96388.53;;;6.42;100.00
55271;BME280;41132;47.162;9.470;2023-03-25T07:36:57;96405.38;;;6.69;100.00
55271;BME280;41132;47.162;9.470;2023-03-25T07:39:23;96405.94;;;6.73;100.00
55271;BME280;41132;47.162;9.470;2023-03-25T07:41:53;96397.22;;;6.53;100.00
55271;BME280;41132;47.162;9.470;2023-03-25T07:44:19;96402.63;;;6.61;100.00
55271;BME280;41132;47.162;9.470;2023-03-25T07:46:46;96406.94;;;6.91;100.00
55271;BME280;41132;47.162;9.470;2023-03-25T07:49:11;96400.59;;;6.84;100.00
55271;BME280;41132;47.162;9.470;2023-03-25T07:51:37;96412.97;;;6.92;100.00
55271;BME280;41132;47.162;9.470;2023-03-25T07:54:02;96428.50;;;6.93;100.00
55271;BME280;41132;47.162;9.470;2023-03-25T07:56:28;96434.81;;;6.90;100.00
55271;BME280;41132;47.162;9.470;2023-03-25T07:58:53;96429.31;;;7.03;100.00
55271;BME280;41132;47.162;9.470;2023-03-25T08:01:18;96400.78;;;7.02;100.00
55271;BME280;41132;47.162;9.470;2023-03-25T08:03:44;96394.44;;;7.14;100.00
55271;BME280;41132;47.162;9.470;2023-03-25T08:06:09;96388.97;;;7.27;100.00
55271;BME280;41132;47.162;9.470;2023-03-25T08:08:35;96390.47;;;7.39;100.00
55271;BME280;41132;47.162;9.470;2023-03-25T08:11:00;96383.31;;;7.51;100.00
55271;BME280;41132;47.162;9.470;2023-03-25T08:13:26;96386.31;;;7.46;100.00
55271;BME280;41132;47.162;9.470;2023-03-25T08:15:51;96385.13;;;7.41;100.00
55271;BME280;41132;47.162;9.470;2023-03-25T08:20:52;96377.81;;;7.54;100.00
55271;BME280;41132;47.162;9.470;2023-03-25T08:31:05;96391.66;;;7.74;100.00
55271;BME280;41132;47.162;9.470;2023-03-25T08:38:42;96395.50;;;7.80;100.00
55271;BME280;41132;47.162;9.470;2023-03-25T08:41:08;96387.69;;;7.70;100.00
55271;BME280;41132;47.162;9.470;2023-03-25T08:43:33;96378.75;;;7.53;100.00
55271;BME280;41132;47.162;9.470;2023-03-25T08:45:59;96405.03;;;7.42;100.00
55271;BME280;41132;47.162;9.470;2023-03-25T08:48:24;96384.16;;;7.32;100.00
55271;BME280;41132;47.162;9.470;2023-03-25T08:50:49;96379.47;;;7.36;100.00
55271;BME280;41132;47.162;9.470;2023-03-25T08:53:15;96377.13;;;7.32;100.00
55271;BME280;41132;47.162;9.470;2023-03-25T08:55:40;96379.19;;;7.39;100.00
55271;BME280;41132;47.162;9.470;2023-03-25T08:58:06;96367.50;;;7.52;100.00
55271;BME280;41132;47.162;9.470;2023-03-25T09:00:35;96359.47;;;7.73;100.00
55271;BME280;41132;47.162;9.470;2023-03-25T09:03:03;96352.59;;;7.82;100.00
55271;BME280;41132;47.162;9.470;2023-03-25T09:05:28;96355.06;;;8.21;100.00
55271;BME280;41132;47.162;9.470;2023-03-25T09:07:54;96347.28;;;8.67;100.00
55271;BME280;41132;47.162;9.470;2023-03-25T09:10:19;96338.47;;;9.04;100.00
55271;BME280;41132;47.162;9.470;2023-03-25T09:12:45;96334.06;;;8.86;100.00
55271;BME280;41132;47.162;9.470;2023-03-25T09:15:11;96338.97;;;9.43;100.00
55271;BME280;41132;47.162;9.470;2023-03-25T09:17:37;96341.56;;;9.87;100.00
55271;BME280;41132;47.162;9.470;2023-03-25T09:20:04;96343.50;;;9.85;100.00
55271;BME280;41132;47.162;9.470;2023-03-25T09:22:33;96337.25;;;10.12;100.00
55271;BME280;41132;47.162;9.470;2023-03-25T09:24:59;96329.53;;;9.50;100.00
55271;BME280;41132;47.162;9.470;2023-03-25T09:27:25;96319.97;;;9.67;100.00
55271;BME280;41132;47.162;9.470;2023-03-25T09:29:50;96323.41;;;9.41;100.00
55271;BME280;41132;47.162;9.470;2023-03-25T09:32:15;96315.56;;;9.68;100.00
55271;BME280;41132;47.162;9.470;2023-03-25T09:34:42;96326.28;;;9.82;100.00
55271;BME280;41132;47.162;9.470;2023-03-25T09:37:09;96318.03;;;9.43;100.00
55271;BME280;41132;47.162;9.470;2023-03-25T09:39:34;96298.56;;;9.02;100.00
55271;BME280;41132;47.162;9.470;2023-03-25T09:42:36;96326.22;;;9.22;100.00
55271;BME280;41132;47.162;9.470;2023-03-25T09:47:51;96316.56;;;9.23;100.00
55271;BME280;41132;47.162;9.470;2023-03-25T09:50:19;96319.41;;;9.29;100.00
55271;BME280;41132;47.162;9.470;2023-03-25T09:53:00;96312.22;;;9.57;100.00
55271;BME280;41132;47.162;9.470;2023-03-25T09:55:31;96319.16;;;9.67;100.00
55271;BME280;41132;47.162;9.470;2023-03-25T10:00:40;96332.03;;;9.34;100.00
55271;BME280;41132;47.162;9.470;2023-03-25T10:03:18;96338.00;;;9.44;100.00
55271;BME280;41132;47.162;9.470;2023-03-25T10:14:09;96319.63;;;9.62;100.00
55271;BME280;41132;47.162;9.470;2023-03-25T10:16:44;96310.09;;;9.87;100.00
55271;BME280;41132;47.162;9.470;2023-03-25T10:24:27;96301.81;;;9.74;100.00
55271;BME280;41132;47.162;9.470;2023-03-25T10:27:04;96305.66;;;9.88;100.00
55271;BME280;41132;47.162;9.470;2023-03-25T10:29:35;96305.06;;;9.94;100.00
55271;BME280;41132;47.162;9.470;2023-03-25T10:32:05;96300.13;;;9.91;100.00
55271;BME280;41132;47.162;9.470;2023-03-25T10:34:39;96304.50;;;10.16;100.00
55271;BME280;41132;47.162;9.470;2023-03-25T10:37:10;96293.34;;;10.57;100.00
55271;BME280;41132;47.162;9.470;2023-03-25T10:39:40;96283.38;;;10.69;94.54
55271;BME280;41132;47.162;9.470;2023-03-25T10:42:23;96300.72;;;10.45;93.74
55271;BME280;41132;47.162;9.470;2023-03-25T10:44:51;96300.34;;;10.40;95.48
55271;BME280;41132;47.162;9.470;2023-03-25T10:47:19;96281.19;;;10.48;94.79
55271;BME280;41132;47.162;9.470;2023-03-25T10:49:47;96293.34;;;10.65;94.94
55271;BME280;41132;47.162;9.470;2023-03-25T10:52:14;96284.69;;;10.81;100.00
55271;BME280;41132;47.162;9.470;2023-03-25T10:54:43;96284.69;;;10.81;89.86
55271;BME280;41132;47.162;9.470;2023-03-25T10:57:20;96282.41;;;10.70;91.36
55271;BME280;41132;47.162;9.470;2023-03-25T10:59:58;96270.94;;;10.79;92.74
55271;BME280;41132;47.162;9.470;2023-03-25T11:02:28;96276.50;;;10.84;91.07
55271;BME280;41132;47.162;9.470;2023-03-25T11:04:57;96287.97;;;10.83;92.30
55271;BME280;41132;47.162;9.470;2023-03-25T11:07:39;96289.97;;;10.89;81.78
55271;BME280;41132;47.162;9.470;2023-03-25T11:10:28;96295.22;;;11.05;78.78
55271;BME280;41132;47.162;9.470;2023-03-25T11:12:55;96289.31;;;11.12;77.73
55271;BME280;41132;47.162;9.470;2023-03-25T11:15:30;96271.59;;;11.05;85.32
55271;BME280;41132;47.162;9.470;2023-03-25T11:18:10;96286.34;;;10.82;78.08
55271;BME280;41132;47.162;9.470;2023-03-25T11:20:39;96272.38;;;10.73;76.94
55271;BME280;41132;47.162;9.470;2023-03-25T11:25:53;96276.84;;;10.97;88.60
55271;BME280;41132;47.162;9.470;2023-03-25T11:28:29;96287.81;;;10.84;86.67
55271;BME280;41132;47.162;9.470;2023-03-25T11:33:37;96300.97;;;10.93;78.28
55271;BME280;41132;47.162;9.470;2023-03-25T11:36:19;96315.22;;;10.82;80.13
55271;BME280;41132;47.162;9.470;2023-03-25T11:38:51;96316.19;;;10.73;76.91
55271;BME280;41132;47.162;9.470;2023-03-25T11:41:18;96307.63;;;10.62;75.72
55271;BME280;41132;47.162;9.470;2023-03-25T11:43:47;96313.84;;;10.45;73.83
55271;BME280;41132;47.162;9.470;2023-03-25T11:46:15;96323.03;;;10.57;76.07
55271;BME280;41132;47.162;9.470;2023-03-25T11:48:43;96296.81;;;10.65;77.04
55271;BME280;41132;47.162;9.470;2023-03-25T11:51:18;96308.66;;;10.78;80.48
55271;BME280;41132;47.162;9.470;2023-03-25T11:53:46;96303.91;;;10.81;86.68
55271;BME280;41132;47.162;9.470;2023-03-25T11:56:19;96287.16;;;10.82;78.15
55271;BME280;41132;47.162;9.470;2023-03-25T11:58:47;96290.75;;;10.73;72.98
55271;BME280;41132;47.162;9.470;2023-03-25T12:01:25;96299.94;;;10.61;71.59
55271;BME280;41132;47.162;9.470;2023-03-25T12:04:20;96293.34;;;10.65;73.86
55271;BME280;41132;47.162;9.470;2023-03-25T12:07:00;96302.38;;;10.62;73.52
55271;BME280;41132;47.162;9.470;2023-03-25T12:09:28;96289.78;;;10.74;78.51
55271;BME280;41132;47.162;9.470;2023-03-25T12:12:06;96299.16;;;10.77;81.88
55271;BME280;41132;47.162;9.470;2023-03-25T12:19:56;96295.69;;;10.76;68.98
55271;BME280;41132;47.162;9.470;2023-03-25T12:22:51;96305.06;;;10.87;63.03
55271;BME280;41132;47.162;9.470;2023-03-25T12:25:46;96317.88;;;10.90;67.00
55271;BME280;41132;47.162;9.470;2023-03-25T12:34:22;96298.34;;;11.01;67.24
55271;BME280;41132;47.162;9.470;2023-03-25T12:37:21;96317.38;;;11.03;73.58
55271;BME280;41132;47.162;9.470;2023-03-25T12:43:03;96306.03;;;10.94;71.61
55271;BME280;41132;47.162;9.470;2023-03-25T12:51:15;96308.88;;;11.17;70.23
55271;BME280;41132;47.162;9.470;2023-03-25T13:01:53;96294.72;;;11.10;68.37
55271;BME280;41132;47.162;9.470;2023-03-25T13:07:24;96314.78;;;11.11;70.40
55271;BME280;41132;47.162;9.470;2023-03-25T13:12:33;96301.59;;;10.78;73.77
55271;BME280;41132;47.162;9.470;2023-03-25T13:15:10;96296.50;;;10.69;74.75
55271;BME280;41132;47.162;9.470;2023-03-25T13:17:43;96303.56;;;10.84;80.62
55271;BME280;41132;47.162;9.470;2023-03-25T13:20:10;96306.47;;;10.65;74.28
55271;BME280;41132;47.162;9.470;2023-03-25T13:22:42;96305.38;;;10.76;78.14
55271;BME280;41132;47.162;9.470;2023-03-25T13:25:18;96316.53;;;10.78;81.45
55271;BME280;41132;47.162;9.470;2023-03-25T13:27:46;96324.53;;;10.60;83.66
55271;BME280;41132;47.162;9.470;2023-03-25T13:30:20;96322.38;;;10.47;86.70
55271;BME280;41132;47.162;9.470;2023-03-25T13:32:50;96334.88;;;10.61;86.44
55271;BME280;41132;47.162;9.470;2023-03-25T13:35:33;96335.31;;;10.49;92.99
55271;BME280;41132;47.162;9.470;2023-03-25T13:38:03;96318.59;;;10.58;88.52
55271;BME280;41132;47.162;9.470;2023-03-25T13:40:38;96321.44;;;10.81;84.81
55271;BME280;41132;47.162;9.470;2023-03-25T13:43:16;96288.06;;;10.40;72.17
55271;BME280;41132;47.162;9.470;2023-03-25T13:48:46;96291.84;;;10.46;89.51
55271;BME280;41132;47.162;9.470;2023-03-25T13:51:12;96305.91;;;10.37;90.04
55271;BME280;41132;47.162;9.470;2023-03-25T14:03:18;96295.03;;;10.23;84.87
55271;BME280;41132;47.162;9.470;2023-03-25T14:11:22;96304.94;;;10.03;98.76
55271;BME280;41132;47.162;9.470;2023-03-25T14:13:53;96295.44;;;10.02;90.55
55271;BME280;41132;47.162;9.470;2023-03-25T14:16:34;96290.94;;;9.87;98.90
55271;BME280;41132;47.162;9.470;2023-03-25T14:19:07;96292.19;;;10.09;94.94
55271;BME280;41132;47.162;9.470;2023-03-25T14:24:13;96311.22;;;10.11;97.11
55271;BME280;41132;47.162;9.470;2023-03-25T14:26:45;96320.03;;;10.10;95.52
55271;BME280;41132;47.162;9.470;2023-03-25T14:29:28;96312.03;;;10.19;92.67
55271;BME280;41132;47.162;9.470;2023-03-25T14:34:30;96313.75;;;10.29;90.87
55271;BME280;41132;47.162;9.470;2023-03-25T14:44:50;96318.56;;;10.41;80.93
55271;BME280;41132;47.162;9.470;2023-03-25T14:52:57;96329.28;;;10.22;78.75
55271;BME280;41132;47.162;9.470;2023-03-25T14:55:29;96318.63;;;10.23;79.25
55271;BME280;41132;47.162;9.470;2023-03-25T14:58:13;96315.44;;;10.38;83.01
55271;BME280;41132;47.162;9.470;2023-03-25T15:00:44;96296.16;;;10.21;79.45
55271;BME280;41132;47.162;9.470;2023-03-25T15:03:16;96284.84;;;10.20;80.55
55271;BME280;41132;47.162;9.470;2023-03-25T15:05:43;96286.78;;;10.10;73.47
55271;BME280;41132;47.162;9.470;2023-03-25T15:08:23;96280.28;;;10.22;78.38
55271;BME280;41132;47.162;9.470;2023-03-25T15:11:01;96280.03;;;10.42;76.35
55271;BME280;41132;47.162;9.470;2023-03-25T15:13:37;96264.78;;;10.45;77.49
55271;BME280;41132;47.162;9.470;2023-03-25T15:16:36;96253.81;;;10.50;79.06
55271;BME280;41132;47.162;9.470;2023-03-25T15:19:03;96254.47;;;10.60;76.72
55271;BME280;41132;47.162;9.470;2023-03-25T15:22:19;96259.25;;;10.57;74.64
55271;BME280;41132;47.162;9.470;2023-03-25T15:24:27;96262.84;;;10.64;76.60
55271;BME280;41132;47.162;9.470;2023-03-25T15:26:58;96240.38;;;10.53;72.38
55271;BME280;41132;47.162;9.470;2023-03-25T15:32:51;96252.19;;;10.57;76.70
55271;BME280;41132;47.162;9.470;2023-03-25T15:44:08;96253.78;;;10.34;75.94
55271;BME280;41132;47.162;9.470;2023-03-25T15:53:20;96226.69;;;10.25;82.72
55271;BME280;41132;47.162;9.470;2023-03-25T15:55:23;96237.84;;;10.27;81.16
55271;BME280;41132;47.162;9.470;2023-03-25T15:58:14;96228.63;;;10.23;82.15